Time,TemperatureF,DewpointF,PressureIn,WindDirection,WindDirectionDegrees,WindSpeedMPH,WindSpeedGustMPH,Humidity,HourlyPrecipIn,Conditions,Clouds,dailyrainin,SolarRadiationWatts/m^2,SoftwareType,DateUTC
2013-04-04 00:00:00,32.7,13.2,30.34,East,97,0.0,0.0,44,0.00,,,0.00,0,Wunderground v.1.15,2013-04-04 04:00:00,
2013-04-04 00:01:00,32.7,13.2,30.34,East,97,0.0,1.0,44,0.00,,,0.00,0,Wunderground v.1.15,2013-04-04 04:01:00,
2013-04-04 00:03:00,32.6,13.1,30.34,East,97,0.0,1.0,44,0.00,,,0.00,0,Wunderground v.1.15,2013-04-04 04:03:00,
2013-04-04 00:08:00,32.5,17.2,30.33,East,96,0.0,1.0,53,0.00,,,0.00,0,Wunderground v.1.15,2013-04-04 04:08:00,
2013-04-04 00:14:00,32.2,18.2,30.33,East,96,0.0,1.0,56,0.00,,,0.00,0,Wunderground v.1.15,2013-04-04 04:14:00,
2013-04-04 00:19:00,32.0,15.4,30.33,East,96,0.0,1.0,50,0.00,,,0.00,0,Wunderground v.1.15,2013-04-04 04:19:00,
2013-04-04 00:24:00,31.8,14.0,30.33,East,97,0.0,-999.0,48,-99.99,,,0.00,,weatherlink.com 1.10,2013-04-04 04:24:00,
2013-04-04 00:29:00,31.7,19.0,30.33,East,97,0.0,1.0,59,0.00,,,0.00,0,Wunderground v.1.15,2013-04-04 04:29:00,
2013-04-04 00:35:00,31.4,17.1,30.33,East,97,0.0,1.0,55,0.00,,,0.00,0,Wunderground v.1.15,2013-04-04 04:35:00,
2013-04-04 00:40:00,31.3,13.4,30.33,East,97,0.0,1.0,47,0.00,,,0.00,0,Wunderground v.1.15,2013-04-04 04:40:00,
2013-04-04 00:45:00,31.4,13.0,30.33,East,97,0.0,1.0,46,0.00,,,0.00,0,Wunderground v.1.15,2013-04-04 04:45:00,
2013-04-04 00:51:00,31.4,14.9,30.33,East,97,0.0,1.0,50,0.00,,,0.00,0,Wunderground v.1.15,2013-04-04 04:51:00,
2013-04-04 00:57:00,31.2,14.7,30.33,East,97,0.0,1.0,50,0.00,,,0.00,0,Wunderground v.1.15,2013-04-04 04:57:00,
2013-04-04 01:02:00,31.1,15.1,30.33,East,97,0.0,0.0,51,0.00,,,0.00,0,Wunderground v.1.15,2013-04-04 05:02:00,
2013-04-04 01:07:00,31.0,13.6,30.33,East,96,0.0,1.0,48,0.00,,,0.00,0,Wunderground v.1.15,2013-04-04 05:07:00,
2013-04-04 01:12:00,31.1,15.1,30.33,East,97,0.0,0.0,51,0.00,,,0.00,0,Wunderground v.1.15,2013-04-04 05:12:00,
2013-04-04 01:18:00,31.0,15.0,30.33,East,98,0.0,3.0,51,0.00,,,0.00,0,Wunderground v.1.15,2013-04-04 05:18:00,
2013-04-04 01:23:00,30.9,15.8,30.34,East,98,0.0,0.0,53,0.00,,,0.00,0,Wunderground v.1.15,2013-04-04 05:23:00,
2013-04-04 01:29:00,30.7,14.7,30.34,East,98,0.0,0.0,51,0.00,,,0.00,0,Wunderground v.1.15,2013-04-04 05:29:00,
2013-04-04 01:35:00,30.6,14.6,30.34,East,98,0.0,0.0,51,0.00,,,0.00,0,Wunderground v.1.15,2013-04-04 05:35:00,
2013-04-04 01:41:00,30.6,16.7,30.34,East,98,0.0,0.0,56,0.00,,,0.00,0,Wunderground v.1.15,2013-04-04 05:41:00,
2013-04-04 01:47:00,30.4,14.9,30.34,East,98,0.0,0.0,52,0.00,,,0.00,0,Wunderground v.1.15,2013-04-04 05:47:00,
2013-04-04 01:53:00,30.2,15.0,30.34,East,98,0.0,-999.0,53,-99.99,,,0.00,,weatherlink.com 1.10,2013-04-04 05:53:00,
2013-04-04 01:58:00,30.1,14.6,30.34,East,98,0.0,0.0,52,0.00,,,0.00,0,Wunderground v.1.15,2013-04-04 05:58:00,
2013-04-04 02:03:00,30.3,14.8,30.34,East,98,0.0,3.0,52,0.00,,,0.00,0,Wunderground v.1.15,2013-04-04 06:03:00,
2013-04-04 02:09:00,30.4,14.9,30.34,East,98,0.0,3.0,52,0.00,,,0.00,0,Wunderground v.1.15,2013-04-04 06:09:00,
2013-04-04 02:14:00,30.5,14.9,30.33,East,98,0.0,3.0,52,0.00,,,0.00,0,Wunderground v.1.15,2013-04-04 06:14:00,
2013-04-04 02:20:00,30.5,14.9,30.33,East,99,0.0,3.0,52,0.00,,,0.00,0,Wunderground v.1.15,2013-04-04 06:20:00,
2013-04-04 02:25:00,30.5,15.4,30.33,East,100,0.0,3.0,53,0.00,,,0.00,0,Wunderground v.1.15,2013-04-04 06:25:00,
2013-04-04 02:30:00,30.3,15.2,30.33,East,100,0.0,3.0,53,0.00,,,0.00,0,Wunderground v.1.15,2013-04-04 06:30:00,
2013-04-04 02:36:00,30.2,15.5,30.33,East,99,0.0,3.0,54,0.00,,,0.00,0,Wunderground v.1.15,2013-04-04 06:36:00,
2013-04-04 02:41:00,30.2,15.5,30.33,East,100,0.0,3.0,54,0.00,,,0.00,0,Wunderground v.1.15,2013-04-04 06:41:00,
2013-04-04 02:47:00,30.2,16.0,30.33,East,100,0.0,3.0,55,0.00,,,0.00,0,Wunderground v.1.15,2013-04-04 06:47:00,
2013-04-04 02:53:00,30.3,16.0,30.33,East,100,0.0,-999.0,55,-99.99,,,0.00,,weatherlink.com 1.10,2013-04-04 06:53:00,
2013-04-04 02:59:00,30.2,16.0,30.33,East,100,0.0,3.0,55,0.00,,,0.00,0,Wunderground v.1.15,2013-04-04 06:59:00,
2013-04-04 03:05:00,30.1,16.3,30.33,East,99,0.0,3.0,56,0.00,,,0.00,0,Wunderground v.1.15,2013-04-04 07:05:00,
2013-04-04 03:11:00,30.0,16.6,30.33,East,99,0.0,3.0,57,0.00,,,0.00,0,Wunderground v.1.15,2013-04-04 07:11:00,
2013-04-04 03:16:00,30.0,16.6,30.32,East,100,0.0,3.0,57,0.00,,,0.00,0,Wunderground v.1.15,2013-04-04 07:16:00,
2013-04-04 03:22:00,29.9,16.5,30.32,East,99,0.0,3.0,57,0.00,,,0.00,0,Wunderground v.1.15,2013-04-04 07:22:00,
2013-04-04 03:27:00,29.8,16.8,30.32,East,100,0.0,3.0,58,0.00,,,0.00,0,Wunderground v.1.15,2013-04-04 07:27:00,
2013-04-04 03:33:00,29.9,16.9,30.32,East,99,0.0,3.0,58,0.00,,,0.00,0,Wunderground v.1.15,2013-04-04 07:33:00,
2013-04-04 03:39:00,29.9,16.9,30.32,East,99,0.0,3.0,58,0.00,,,0.00,0,Wunderground v.1.15,2013-04-04 07:39:00,
2013-04-04 03:44:00,30.0,17.0,30.31,East,100,0.0,3.0,58,0.00,,,0.00,0,Wunderground v.1.15,2013-04-04 07:44:00,
2013-04-04 03:50:00,30.0,17.0,30.31,East,99,0.0,3.0,58,0.00,,,0.00,0,Wunderground v.1.15,2013-04-04 07:50:00,
2013-04-04 03:56:00,30.1,17.1,30.31,East,99,0.0,3.0,58,0.00,,,0.00,0,Wunderground v.1.15,2013-04-04 07:56:00,
2013-04-04 04:01:00,29.9,16.9,30.31,East,99,0.0,1.0,58,0.00,,,0.00,0,Wunderground v.1.15,2013-04-04 08:01:00,
2013-04-04 04:07:00,29.7,17.1,30.31,East,99,0.0,1.0,59,0.00,,,0.00,0,Wunderground v.1.15,2013-04-04 08:07:00,
2013-04-04 04:14:00,29.5,16.9,30.31,East,100,0.0,1.0,59,0.00,,,0.00,0,Wunderground v.1.15,2013-04-04 08:14:00,
2013-04-04 04:19:00,29.4,17.2,30.31,East,100,0.0,1.0,60,0.00,,,0.00,0,Wunderground v.1.15,2013-04-04 08:19:00,
2013-04-04 04:25:00,29.4,17.2,30.31,East,100,0.0,1.0,60,0.00,,,0.00,0,Wunderground v.1.15,2013-04-04 08:25:00,
2013-04-04 04:31:00,29.2,17.4,30.30,East,100,0.0,1.0,61,0.00,,,0.00,0,Wunderground v.1.15,2013-04-04 08:31:00,
2013-04-04 04:37:00,29.1,17.3,30.30,East,99,0.0,1.0,61,0.00,,,0.00,0,Wunderground v.1.15,2013-04-04 08:37:00,
2013-04-04 04:43:00,29.0,17.2,30.30,East,100,0.0,1.0,61,0.00,,,0.00,0,Wunderground v.1.15,2013-04-04 08:43:00,
2013-04-04 04:49:00,28.9,17.5,30.30,East,99,0.0,1.0,62,0.00,,,0.00,0,Wunderground v.1.15,2013-04-04 08:49:00,
2013-04-04 04:54:00,28.7,17.0,30.30,East,100,0.0,-999.0,62,-99.99,,,0.00,,weatherlink.com 1.10,2013-04-04 08:54:00,
2013-04-04 04:59:00,28.6,17.6,30.30,East,100,0.0,1.0,63,0.00,,,0.00,0,Wunderground v.1.15,2013-04-04 08:59:00,
2013-04-04 05:04:00,28.5,17.5,30.30,East,100,0.0,0.0,63,0.00,,,0.00,0,Wunderground v.1.15,2013-04-04 09:04:00,
2013-04-04 05:09:00,28.4,18.0,30.30,East,100,0.0,-999.0,64,-99.99,,,0.00,,weatherlink.com 1.10,2013-04-04 09:09:00,
2013-04-04 05:15:00,28.2,17.6,30.29,East,99,0.0,0.0,64,0.00,,,0.00,0,Wunderground v.1.15,2013-04-04 09:15:00,
2013-04-04 05:20:00,28.0,17.7,30.29,East,100,0.0,0.0,65,0.00,,,0.00,0,Wunderground v.1.15,2013-04-04 09:20:00,
2013-04-04 05:26:00,27.8,17.9,30.29,East,100,0.0,0.0,66,0.00,,,0.00,0,Wunderground v.1.15,2013-04-04 09:26:00,
2013-04-04 05:31:00,27.6,18.1,30.28,East,99,0.0,0.0,67,0.00,,,0.00,0,Wunderground v.1.15,2013-04-04 09:31:00,
2013-04-04 05:36:00,27.4,17.9,30.28,East,99,0.0,0.0,67,0.00,,,0.00,0,Wunderground v.1.15,2013-04-04 09:36:00,
2013-04-04 05:41:00,27.3,18.1,30.28,East,100,0.0,0.0,68,0.00,,,0.00,0,Wunderground v.1.15,2013-04-04 09:41:00,
2013-04-04 05:46:00,27.2,18.7,30.28,East,100,0.0,0.0,70,0.00,,,0.00,0,Wunderground v.1.15,2013-04-04 09:46:00,
2013-04-04 05:52:00,27.0,18.2,30.28,East,100,0.0,0.0,69,0.00,,,0.00,0,Wunderground v.1.15,2013-04-04 09:52:00,
2013-04-04 05:57:00,27.1,18.6,30.28,East,100,0.0,0.0,70,0.00,,,0.00,0,Wunderground v.1.15,2013-04-04 09:57:00,
2013-04-04 06:02:00,27.1,19.3,30.28,East,99,0.0,0.0,72,0.00,,,0.00,0,Wunderground v.1.15,2013-04-04 10:02:00,
2013-04-04 06:07:00,27.0,18.5,30.27,East,99,0.0,0.0,70,0.00,,,0.00,0,Wunderground v.1.15,2013-04-04 10:07:00,
2013-04-04 06:13:00,26.9,18.7,30.27,East,99,0.0,0.0,71,0.00,,,0.00,0,Wunderground v.1.15,2013-04-04 10:13:00,
2013-04-04 06:18:00,26.7,18.9,30.27,East,100,0.0,0.0,72,0.00,,,0.00,0,Wunderground v.1.15,2013-04-04 10:18:00,
2013-04-04 06:23:00,26.5,19.0,30.27,East,100,0.0,0.0,73,0.00,,,0.00,0,Wunderground v.1.15,2013-04-04 10:23:00,
2013-04-04 06:29:00,26.2,19.4,30.27,East,100,0.0,0.0,75,0.00,,,0.00,0,Wunderground v.1.15,2013-04-04 10:29:00,
2013-04-04 06:35:00,26.0,19.2,30.26,East,100,0.0,0.0,75,0.00,,,0.00,0,Wunderground v.1.15,2013-04-04 10:35:00,
2013-04-04 06:40:00,26.0,18.5,30.26,East,100,0.0,0.0,73,0.00,,,0.00,0,Wunderground v.1.15,2013-04-04 10:40:00,
2013-04-04 06:45:00,25.9,18.1,30.26,East,100,0.0,0.0,72,0.00,,,0.00,0,Wunderground v.1.15,2013-04-04 10:45:00,
2013-04-04 06:51:00,25.8,18.3,30.26,East,99,0.0,0.0,73,0.00,,,0.00,0,Wunderground v.1.15,2013-04-04 10:51:00,
2013-04-04 06:57:00,25.7,18.2,30.26,East,100,0.0,0.0,73,0.00,,,0.00,0,Wunderground v.1.15,2013-04-04 10:57:00,
2013-04-04 07:02:00,25.6,18.1,30.26,East,100,0.0,0.0,73,0.00,,,0.00,0,Wunderground v.1.15,2013-04-04 11:02:00,
2013-04-04 07:08:00,25.6,18.5,30.26,East,99,0.0,0.0,74,0.00,,,0.00,0,Wunderground v.1.15,2013-04-04 11:08:00,
2013-04-04 07:13:00,25.6,18.1,30.26,East,100,0.0,0.0,73,0.00,,,0.00,0,Wunderground v.1.15,2013-04-04 11:13:00,
2013-04-04 07:18:00,25.7,19.2,30.26,East,100,0.0,0.0,76,0.00,,,0.00,0,Wunderground v.1.15,2013-04-04 11:18:00,
2013-04-04 07:24:00,25.7,19.5,30.26,East,99,0.0,0.0,77,0.00,,,0.00,5,Wunderground v.1.15,2013-04-04 11:24:00,
2013-04-04 07:30:00,25.7,18.6,30.26,East,100,0.0,0.0,74,0.00,,,0.00,9,Wunderground v.1.15,2013-04-04 11:30:00,
2013-04-04 07:36:00,25.6,18.5,30.25,East,100,0.0,0.0,74,0.00,,,0.00,16,Wunderground v.1.15,2013-04-04 11:36:00,
2013-04-04 07:42:00,25.7,20.4,30.25,East,100,0.0,0.0,80,0.00,,,0.00,23,Wunderground v.1.15,2013-04-04 11:42:00,
2013-04-04 07:48:00,25.8,20.8,30.25,East,100,0.0,0.0,81,0.00,,,0.00,32,Wunderground v.1.15,2013-04-04 11:48:00,
2013-04-04 07:53:00,25.8,20.0,30.25,East,100,0.0,-999.0,78,-99.99,,,0.00,,weatherlink.com 1.10,2013-04-04 11:53:00,
2013-04-04 07:59:00,26.0,19.2,30.25,East,100,0.0,0.0,75,0.00,,,0.00,54,Wunderground v.1.15,2013-04-04 11:59:00,
2013-04-04 08:05:00,26.3,19.1,30.25,East,99,0.0,0.0,74,0.00,,,0.00,65,Wunderground v.1.15,2013-04-04 12:05:00,
2013-04-04 08:14:00,26.9,19.7,30.24,East,100,0.0,1.0,74,0.00,,,0.00,74,Wunderground v.1.15,2013-04-04 12:14:00,
2013-04-04 08:20:00,27.1,19.6,30.24,East,100,0.0,0.0,73,0.00,,,0.00,84,Wunderground v.1.15,2013-04-04 12:20:00,
2013-04-04 08:25:00,27.4,19.6,30.24,East,100,0.0,0.0,72,0.00,,,0.00,107,Wunderground v.1.15,2013-04-04 12:25:00,
2013-04-04 08:30:00,27.9,19.4,30.24,East,100,0.0,0.0,70,0.00,,,0.00,120,Wunderground v.1.15,2013-04-04 12:30:00,
2013-04-04 08:35:00,28.5,19.6,30.24,East,100,0.0,0.0,69,0.00,,,0.00,146,Wunderground v.1.15,2013-04-04 12:35:00,
2013-04-04 08:41:00,29.2,19.9,30.24,East,99,0.0,0.0,68,0.00,,,0.00,181,Wunderground v.1.15,2013-04-04 12:41:00,
2013-04-04 08:47:00,30.0,20.0,30.24,ENE,71,0.0,0.0,66,0.00,,,0.00,167,Wunderground v.1.15,2013-04-04 12:47:00,
2013-04-04 08:53:00,30.5,20.0,30.23,ENE,71,0.0,-999.0,65,-99.99,,,0.00,,weatherlink.com 1.10,2013-04-04 12:53:00,
2013-04-04 08:59:00,31.1,20.3,30.23,East,79,0.0,1.0,64,0.00,,,0.00,255,Wunderground v.1.15,2013-04-04 12:59:00,
2013-04-04 09:04:00,31.7,20.5,30.23,SE,124,0.0,3.0,63,0.00,,,0.00,209,Wunderground v.1.15,2013-04-04 13:04:00,
2013-04-04 09:10:00,32.3,21.1,30.23,SE,124,0.0,2.0,63,0.00,,,0.00,258,Wunderground v.1.15,2013-04-04 13:10:00,
2013-04-04 09:16:00,32.9,21.3,30.23,SE,125,0.0,2.0,62,0.00,,,0.00,271,Wunderground v.1.15,2013-04-04 13:16:00,
2013-04-04 09:21:00,33.4,21.4,30.23,SW,220,0.0,2.0,61,0.00,,,0.00,248,Wunderground v.1.15,2013-04-04 13:21:00,
2013-04-04 09:27:00,33.9,21.5,30.23,ENE,78,0.0,2.0,60,0.00,,,0.00,336,Wunderground v.1.15,2013-04-04 13:27:00,
2013-04-04 09:33:00,34.3,21.4,30.23,North,5,0.0,2.0,59,0.00,,,0.00,330,Wunderground v.1.15,2013-04-04 13:33:00,
2013-04-04 09:38:00,34.5,21.0,30.23,SSE,147,2.0,-999.0,59,-99.99,,,0.00,,weatherlink.com 1.10,2013-04-04 13:38:00,
2013-04-04 09:44:00,35.4,22.5,30.22,West,260,0.0,2.0,59,0.00,,,0.00,432,Wunderground v.1.15,2013-04-04 13:44:00,
2013-04-04 09:49:00,36.0,21.8,30.21,ENE,74,0.0,4.0,56,0.00,,,0.00,450,Wunderground v.1.15,2013-04-04 13:49:00,
2013-04-04 09:54:00,36.5,22.7,30.21,South,182,0.0,3.0,57,0.00,,,0.00,464,Wunderground v.1.15,2013-04-04 13:54:00,
2013-04-04 09:59:00,37.0,22.3,30.21,ESE,117,1.0,3.0,55,0.00,,,0.00,455,Wunderground v.1.15,2013-04-04 13:59:00,
2013-04-04 10:05:00,37.6,22.4,30.21,NE,34,0.0,3.0,54,0.00,,,0.00,515,Wunderground v.1.15,2013-04-04 14:05:00,
2013-04-04 10:10:00,38.1,22.5,30.20,SSW,205,0.0,3.0,53,0.00,,,0.00,557,Wunderground v.1.15,2013-04-04 14:10:00,
2013-04-04 10:15:00,38.9,23.2,30.20,ENE,74,1.0,3.0,53,0.00,,,0.00,573,Wunderground v.1.15,2013-04-04 14:15:00,
2013-04-04 10:21:00,39.7,23.5,30.20,ESE,109,1.0,3.0,52,0.00,,,0.00,570,Wunderground v.1.15,2013-04-04 14:21:00,
2013-04-04 10:26:00,40.3,22.6,30.19,SW,215,1.0,3.0,49,0.00,,,0.00,605,Wunderground v.1.15,2013-04-04 14:26:00,
2013-04-04 10:32:00,40.9,23.7,30.19,SE,131,1.0,3.0,50,0.00,,,0.00,617,Wunderground v.1.15,2013-04-04 14:32:00,
2013-04-04 10:38:00,41.6,22.3,30.19,SE,145,1.0,3.0,46,0.00,,,0.00,617,Wunderground v.1.15,2013-04-04 14:38:00,
2013-04-04 10:44:00,41.8,23.0,30.19,North,355,1.0,3.0,47,0.00,,,0.00,622,Wunderground v.1.15,2013-04-04 14:44:00,
2013-04-04 10:49:00,42.2,22.4,30.19,SSE,150,0.0,3.0,45,0.00,,,0.00,589,Wunderground v.1.15,2013-04-04 14:49:00,
2013-04-04 10:55:00,42.0,22.2,30.19,SSW,203,1.0,8.0,45,0.00,,,0.00,487,Wunderground v.1.15,2013-04-04 14:55:00,
2013-04-04 11:00:00,42.2,22.9,30.19,West,275,2.0,2.0,46,0.00,,,0.00,631,Wunderground v.1.15,2013-04-04 15:00:00,
2013-04-04 11:06:00,42.9,21.9,30.19,East,101,1.0,10.0,43,0.00,,,0.00,680,Wunderground v.1.15,2013-04-04 15:06:00,
2013-04-04 11:11:00,43.6,22.5,30.19,SSW,196,0.0,10.0,43,0.00,,,0.00,698,Wunderground v.1.15,2013-04-04 15:11:00,
2013-04-04 11:16:00,44.2,22.0,30.19,SSW,206,1.0,10.0,41,0.00,,,0.00,675,Wunderground v.1.15,2013-04-04 15:16:00,
2013-04-04 11:22:00,43.9,22.3,30.19,ESE,119,3.0,10.0,42,0.00,,,0.00,726,Wunderground v.1.15,2013-04-04 15:22:00,
2013-04-04 11:27:00,44.6,21.1,30.18,South,186,3.0,10.0,39,0.00,,,0.00,728,Wunderground v.1.15,2013-04-04 15:27:00,
2013-04-04 11:32:00,45.2,20.4,30.18,SSW,202,1.0,10.0,37,0.00,,,0.00,766,Wunderground v.1.15,2013-04-04 15:32:00,
2013-04-04 11:38:00,45.2,20.0,30.18,South,176,0.0,-999.0,37,-99.99,,,0.00,,weatherlink.com 1.10,2013-04-04 15:38:00,
2013-04-04 11:44:00,45.1,20.3,30.18,SW,222,1.0,10.0,37,0.00,,,0.00,775,Wunderground v.1.15,2013-04-04 15:44:00,
2013-04-04 11:50:00,45.1,20.3,30.17,SSW,200,2.0,2.0,37,0.00,,,0.00,666,Wunderground v.1.15,2013-04-04 15:50:00,
2013-04-04 11:55:00,44.9,19.5,30.17,SSW,213,2.0,10.0,36,0.00,,,0.00,793,Wunderground v.1.15,2013-04-04 15:55:00,
2013-04-04 12:01:00,45.1,19.7,30.17,SSW,209,1.0,10.0,36,0.00,,,0.00,810,Wunderground v.1.15,2013-04-04 16:01:00,
2013-04-04 12:07:00,45.3,20.5,30.16,SSE,147,1.0,10.0,37,0.00,,,0.00,786,Wunderground v.1.15,2013-04-04 16:07:00,
2013-04-04 12:14:00,46.6,22.3,30.16,SSW,205,1.0,10.0,38,0.00,,,0.00,828,Wunderground v.1.15,2013-04-04 16:14:00,
2013-04-04 12:20:00,47.5,20.5,30.16,SE,129,0.0,10.0,34,0.00,,,0.00,849,Wunderground v.1.15,2013-04-04 16:20:00,
2013-04-04 12:26:00,47.5,19.8,30.15,SE,134,0.0,10.0,33,0.00,,,0.00,863,Wunderground v.1.15,2013-04-04 16:26:00,
2013-04-04 12:32:00,48.1,21.0,30.15,SSW,213,1.0,10.0,34,0.00,,,0.00,875,Wunderground v.1.15,2013-04-04 16:32:00,
2013-04-04 12:38:00,47.8,19.0,30.15,SSW,192,4.0,-999.0,32,-99.99,,,0.00,,weatherlink.com 1.10,2013-04-04 16:38:00,
2013-04-04 12:43:00,47.4,19.0,30.14,SW,225,3.0,10.0,32,0.00,,,0.00,856,Wunderground v.1.15,2013-04-04 16:43:00,
2013-04-04 12:48:00,46.9,18.5,30.14,ESE,113,2.0,10.0,32,0.00,,,0.00,879,Wunderground v.1.15,2013-04-04 16:48:00,
2013-04-04 12:53:00,47.2,20.9,30.14,East,95,1.0,10.0,35,0.00,,,0.00,884,Wunderground v.1.15,2013-04-04 16:53:00,
2013-04-04 12:59:00,48.8,20.2,30.14,SSW,198,1.0,10.0,32,0.00,,,0.00,893,Wunderground v.1.15,2013-04-04 16:59:00,
2013-04-04 13:04:00,48.8,21.6,30.14,SSW,192,2.0,10.0,34,0.00,,,0.00,893,Wunderground v.1.15,2013-04-04 17:04:00,
2013-04-04 13:10:00,48.3,19.8,30.13,West,273,2.0,2.0,32,0.00,,,0.00,900,Wunderground v.1.15,2013-04-04 17:10:00,
2013-04-04 13:15:00,48.2,21.8,30.13,NW,322,1.0,10.0,35,0.00,,,0.00,895,Wunderground v.1.15,2013-04-04 17:15:00,
2013-04-04 13:20:00,49.3,21.4,30.13,ESE,114,1.0,10.0,33,0.00,,,0.00,912,Wunderground v.1.15,2013-04-04 17:20:00,
2013-04-04 13:26:00,49.5,20.8,30.12,WSW,244,2.0,10.0,32,0.00,,,0.00,896,Wunderground v.1.15,2013-04-04 17:26:00,
2013-04-04 13:31:00,48.8,18.7,30.12,SW,219,3.0,10.0,30,0.00,,,0.00,909,Wunderground v.1.15,2013-04-04 17:31:00,
2013-04-04 13:37:00,48.7,18.6,30.11,West,275,5.0,10.0,30,0.00,,,0.00,889,Wunderground v.1.15,2013-04-04 17:37:00,
2013-04-04 13:43:00,49.0,19.6,30.11,SW,222,3.0,10.0,31,0.00,,,0.00,863,Wunderground v.1.15,2013-04-04 17:43:00,
2013-04-04 13:48:00,49.7,21.7,30.10,NNE,27,1.0,10.0,33,0.00,,,0.00,872,Wunderground v.1.15,2013-04-04 17:48:00,
2013-04-04 13:54:00,50.9,22.1,30.10,SSW,192,1.0,10.0,32,0.00,,,0.00,858,Wunderground v.1.15,2013-04-04 17:54:00,
2013-04-04 13:59:00,51.1,19.9,30.10,ESE,109,0.0,10.0,29,0.00,,,0.00,911,Wunderground v.1.15,2013-04-04 17:59:00,
2013-04-04 14:04:00,50.9,19.7,30.10,SW,230,2.0,12.0,29,0.00,,,0.00,879,Wunderground v.1.15,2013-04-04 18:04:00,
2013-04-04 14:10:00,50.6,18.6,30.09,SW,216,4.0,12.0,28,0.00,,,0.00,889,Wunderground v.1.15,2013-04-04 18:10:00,
2013-04-04 14:15:00,50.6,17.8,30.09,East,80,4.0,12.0,27,0.00,,,0.00,886,Wunderground v.1.15,2013-04-04 18:15:00,
2013-04-04 14:21:00,51.2,21.6,30.09,East,80,1.0,12.0,31,0.00,,,0.00,863,Wunderground v.1.15,2013-04-04 18:21:00,
2013-04-04 14:27:00,52.4,22.6,30.08,ENE,68,0.0,12.0,31,0.00,,,0.00,900,Wunderground v.1.15,2013-04-04 18:27:00,
2013-04-04 14:33:00,52.8,20.5,30.08,SSW,193,0.0,12.0,28,0.00,,,0.00,900,Wunderground v.1.15,2013-04-04 18:33:00,
2013-04-04 14:38:00,52.4,20.0,30.07,WSW,257,0.0,-999.0,28,-99.99,,,0.00,,weatherlink.com 1.10,2013-04-04 18:38:00,
2013-04-04 14:43:00,52.3,20.9,30.07,SSW,205,4.0,12.0,29,0.00,,,0.00,895,Wunderground v.1.15,2013-04-04 18:43:00,
2013-04-04 14:49:00,52.4,21.0,30.07,NW,309,3.0,12.0,29,0.00,,,0.00,851,Wunderground v.1.15,2013-04-04 18:49:00,
2013-04-04 14:54:00,52.2,20.9,30.07,West,275,1.0,12.0,29,0.00,,,0.00,851,Wunderground v.1.15,2013-04-04 18:54:00,
2013-04-04 15:00:00,52.8,20.5,30.06,SW,235,3.0,3.0,28,0.00,,,0.00,846,Wunderground v.1.15,2013-04-04 19:00:00,
2013-04-04 15:06:00,53.7,22.2,30.05,SW,234,3.0,13.0,29,0.00,,,0.00,842,Wunderground v.1.15,2013-04-04 19:06:00,
2013-04-04 15:11:00,54.3,21.8,30.06,SSW,209,2.0,13.0,28,0.00,,,0.00,772,Wunderground v.1.15,2013-04-04 19:11:00,
2013-04-04 15:17:00,53.8,19.7,30.05,WSW,244,4.0,13.0,26,0.00,,,0.00,816,Wunderground v.1.15,2013-04-04 19:17:00,
2013-04-04 15:22:00,53.1,20.0,30.05,West,277,5.0,13.0,27,0.00,,,0.00,802,Wunderground v.1.15,2013-04-04 19:22:00,
2013-04-04 15:28:00,53.5,22.0,30.05,West,266,3.0,13.0,29,0.00,,,0.00,826,Wunderground v.1.15,2013-04-04 19:28:00,
2013-04-04 15:33:00,53.2,20.0,30.05,West,266,2.0,13.0,27,0.00,,,0.00,786,Wunderground v.1.15,2013-04-04 19:33:00,
2013-04-04 15:39:00,53.1,19.0,30.04,WSW,257,7.0,-999.0,26,-99.99,,,0.00,,weatherlink.com 1.10,2013-04-04 19:39:00,
2013-04-04 15:44:00,53.0,20.7,30.04,WSW,249,4.0,13.0,28,0.00,,,0.00,779,Wunderground v.1.15,2013-04-04 19:44:00,
2013-04-04 15:50:00,53.7,19.6,30.04,SSW,208,4.0,4.0,26,0.00,,,0.00,789,Wunderground v.1.15,2013-04-04 19:50:00,
2013-04-04 15:57:00,53.6,20.4,30.03,WNW,286,5.0,13.0,27,0.00,,,0.00,745,Wunderground v.1.15,2013-04-04 19:57:00,
2013-04-04 16:02:00,53.9,19.8,30.02,SSW,209,4.0,12.0,26,0.00,,,0.00,775,Wunderground v.1.15,2013-04-04 20:02:00,
2013-04-04 16:10:00,54.1,18.1,30.02,WSW,248,5.0,5.0,24,0.00,,,0.00,738,Wunderground v.1.15,2013-04-04 20:10:00,
2013-04-04 16:16:00,54.2,17.1,30.02,SW,230,5.0,12.0,23,0.00,,,0.00,684,Wunderground v.1.15,2013-04-04 20:16:00,
2013-04-04 16:21:00,53.9,17.9,30.02,SW,231,5.0,12.0,24,0.00,,,0.00,677,Wunderground v.1.15,2013-04-04 20:21:00,
2013-04-04 16:26:00,54.4,18.3,30.02,SSW,200,6.0,12.0,24,0.00,,,0.00,680,Wunderground v.1.15,2013-04-04 20:26:00,
2013-04-04 16:32:00,54.8,18.6,30.02,South,190,5.0,12.0,24,0.00,,,0.00,677,Wunderground v.1.15,2013-04-04 20:32:00,
2013-04-04 16:37:00,55.0,18.8,30.02,NW,319,4.0,12.0,24,0.00,,,0.00,679,Wunderground v.1.15,2013-04-04 20:37:00,
2013-04-04 16:43:00,55.3,20.0,30.01,SSW,202,5.0,12.0,25,0.00,,,0.00,670,Wunderground v.1.15,2013-04-04 20:43:00,
2013-04-04 16:48:00,55.5,20.2,30.01,WSW,240,6.0,12.0,25,0.00,,,0.00,596,Wunderground v.1.15,2013-04-04 20:48:00,
2013-04-04 16:53:00,54.9,20.0,30.01,WNW,287,0.0,-999.0,25,-99.99,,,0.00,,weatherlink.com 1.10,2013-04-04 20:53:00,
2013-04-04 16:58:00,55.1,20.8,30.00,South,191,3.0,12.0,26,0.00,,,0.00,599,Wunderground v.1.15,2013-04-04 20:58:00,
2013-04-04 17:03:00,55.3,20.0,30.00,SW,234,3.0,13.0,25,0.00,,,0.00,608,Wunderground v.1.15,2013-04-04 21:03:00,
2013-04-04 17:09:00,55.6,19.0,30.00,SSW,209,6.0,-999.0,24,-99.99,,,0.00,,weatherlink.com 1.10,2013-04-04 21:09:00,
2013-04-04 17:14:00,55.5,18.2,30.00,WNW,286,4.0,13.0,23,0.00,,,0.00,487,Wunderground v.1.15,2013-04-04 21:14:00,
2013-04-04 17:19:00,55.2,19.0,30.00,West,261,5.0,13.0,24,0.00,,,0.00,490,Wunderground v.1.15,2013-04-04 21:19:00,
2013-04-04 17:25:00,55.6,18.3,29.99,WSW,254,4.0,13.0,23,0.00,,,0.00,508,Wunderground v.1.15,2013-04-04 21:25:00,
2013-04-04 17:31:00,55.2,19.0,29.99,SW,227,6.0,11.0,24,0.00,,,0.00,392,Wunderground v.1.15,2013-04-04 21:31:00,
2013-04-04 17:37:00,55.0,19.8,29.99,West,271,8.0,13.0,25,0.00,,,0.00,439,Wunderground v.1.15,2013-04-04 21:37:00,
2013-04-04 17:43:00,55.0,18.8,29.99,West,273,6.0,13.0,24,0.00,,,0.00,459,Wunderground v.1.15,2013-04-04 21:43:00,
2013-04-04 17:48:00,55.2,18.0,29.99,WNW,292,4.0,13.0,23,0.00,,,0.00,388,Wunderground v.1.15,2013-04-04 21:48:00,
2013-04-04 17:53:00,55.0,18.0,29.99,West,259,7.0,-999.0,23,-99.99,,,0.00,,weatherlink.com 1.10,2013-04-04 21:53:00,
2013-04-04 17:58:00,55.0,18.8,29.99,SW,229,7.0,13.0,24,0.00,,,0.00,316,Wunderground v.1.15,2013-04-04 21:58:00,
2013-04-04 18:04:00,55.1,19.9,29.98,West,272,5.0,13.0,25,0.00,,,0.00,399,Wunderground v.1.15,2013-04-04 22:04:00,
2013-04-04 18:10:00,55.3,19.1,29.99,WNW,291,3.0,3.0,24,0.00,,,0.00,322,Wunderground v.1.15,2013-04-04 22:10:00,
2013-04-04 18:16:00,55.8,20.5,29.98,NW,313,1.0,13.0,25,0.00,,,0.00,362,Wunderground v.1.15,2013-04-04 22:16:00,
2013-04-04 18:21:00,55.5,19.2,29.98,West,269,3.0,13.0,24,0.00,,,0.00,345,Wunderground v.1.15,2013-04-04 22:21:00,
2013-04-04 18:27:00,55.3,20.0,29.98,WNW,293,5.0,13.0,25,0.00,,,0.00,313,Wunderground v.1.15,2013-04-04 22:27:00,
2013-04-04 18:33:00,55.4,20.1,29.98,WSW,252,5.0,13.0,25,0.00,,,0.00,299,Wunderground v.1.15,2013-04-04 22:33:00,
2013-04-04 18:38:00,55.5,20.2,29.98,West,261,5.0,13.0,25,0.00,,,0.00,276,Wunderground v.1.15,2013-04-04 22:38:00,
2013-04-04 18:43:00,55.5,19.2,29.98,West,270,5.0,13.0,24,0.00,,,0.00,251,Wunderground v.1.15,2013-04-04 22:43:00,
2013-04-04 18:49:00,55.4,20.1,29.98,West,273,6.0,13.0,25,0.00,,,0.00,227,Wunderground v.1.15,2013-04-04 22:49:00,
2013-04-04 18:55:00,55.3,20.0,29.98,WSW,240,5.0,13.0,25,0.00,,,0.00,204,Wunderground v.1.15,2013-04-04 22:55:00,
2013-04-04 19:00:00,55.2,19.9,29.98,West,274,5.0,5.0,25,0.00,,,0.00,178,Wunderground v.1.15,2013-04-04 23:00:00,
2013-04-04 19:06:00,55.0,19.8,29.98,WSW,252,6.0,13.0,25,0.00,,,0.00,155,Wunderground v.1.15,2013-04-04 23:06:00,
2013-04-04 19:12:00,54.8,19.6,29.98,West,260,6.0,13.0,25,0.00,,,0.00,132,Wunderground v.1.15,2013-04-04 23:12:00,
2013-04-04 19:17:00,54.8,20.5,29.98,West,265,5.0,13.0,26,0.00,,,0.00,113,Wunderground v.1.15,2013-04-04 23:17:00,
2013-04-04 19:23:00,54.6,20.0,29.98,WSW,250,5.0,-999.0,26,-99.99,,,0.00,,weatherlink.com 1.10,2013-04-04 23:23:00,
2013-04-04 19:28:00,54.5,20.3,29.99,SW,221,5.0,13.0,26,0.00,,,0.00,76,Wunderground v.1.15,2013-04-04 23:28:00,
2013-04-04 19:33:00,54.4,20.2,29.99,WSW,244,4.0,13.0,26,0.00,,,0.00,58,Wunderground v.1.15,2013-04-04 23:33:00,
2013-04-04 19:38:00,54.3,20.1,29.98,West,260,3.0,13.0,26,0.00,,,0.00,44,Wunderground v.1.15,2013-04-04 23:38:00,
2013-04-04 19:44:00,54.1,19.9,29.98,WSW,237,2.0,13.0,26,0.00,,,0.00,33,Wunderground v.1.15,2013-04-04 23:44:00,
2013-04-04 19:49:00,53.8,19.7,29.98,West,267,3.0,13.0,26,0.00,,,0.00,23,Wunderground v.1.15,2013-04-04 23:49:00,
2013-04-04 19:55:00,53.3,19.2,29.98,SSW,202,4.0,13.0,26,0.00,,,0.00,16,Wunderground v.1.15,2013-04-04 23:55:00,
2013-04-04 20:00:00,53.0,19.0,29.98,West,261,4.0,4.0,26,0.00,,,0.00,12,Wunderground v.1.15,2013-04-05 00:00:00,
2013-04-04 20:06:00,52.8,18.8,29.98,SW,225,2.0,12.0,26,0.00,,,0.00,7,Wunderground v.1.15,2013-04-05 00:06:00,
2013-04-04 20:11:00,52.5,19.4,29.98,West,261,1.0,12.0,27,0.00,,,0.00,5,Wunderground v.1.15,2013-04-05 00:11:00,
2013-04-04 20:18:00,52.2,19.2,29.98,SW,227,0.0,12.0,27,0.00,,,0.00,0,Wunderground v.1.15,2013-04-05 00:18:00,
2013-04-04 20:23:00,52.0,19.0,29.98,SW,227,0.0,-999.0,27,-99.99,,,0.00,,weatherlink.com 1.10,2013-04-05 00:23:00,
2013-04-04 20:28:00,51.8,18.8,29.98,SW,227,0.0,12.0,27,0.00,,,0.00,0,Wunderground v.1.15,2013-04-05 00:28:00,
2013-04-04 20:33:00,51.5,18.6,29.98,SW,227,0.0,12.0,27,0.00,,,0.00,0,Wunderground v.1.15,2013-04-05 00:33:00,
2013-04-04 20:38:00,51.2,20.0,29.98,SW,227,0.0,-999.0,29,-99.99,,,0.00,,weatherlink.com 1.10,2013-04-05 00:38:00,
2013-04-04 20:44:00,50.7,19.6,29.98,SW,227,0.0,12.0,29,0.00,,,0.00,0,Wunderground v.1.15,2013-04-05 00:44:00,
2013-04-04 20:50:00,50.6,19.5,29.98,SW,227,0.0,12.0,29,0.00,,,0.00,0,Wunderground v.1.15,2013-04-05 00:50:00,
2013-04-04 20:56:00,50.5,19.4,29.97,SW,227,0.0,12.0,29,0.00,,,0.00,0,Wunderground v.1.15,2013-04-05 00:56:00,
2013-04-04 21:02:00,50.1,19.8,29.97,SW,227,0.0,4.0,30,0.00,,,0.00,0,Wunderground v.1.15,2013-04-05 01:02:00,
2013-04-04 21:07:00,49.8,20.3,29.97,SW,227,0.0,4.0,31,0.00,,,0.00,0,Wunderground v.1.15,2013-04-05 01:07:00,
2013-04-04 21:13:00,49.5,20.1,29.98,SW,227,0.0,4.0,31,0.00,,,0.00,0,Wunderground v.1.15,2013-04-05 01:13:00,
2013-04-04 21:19:00,49.2,19.8,29.98,SW,227,0.0,4.0,31,0.00,,,0.00,0,Wunderground v.1.15,2013-04-05 01:19:00,
2013-04-04 21:24:00,48.8,20.9,29.98,SW,227,0.0,4.0,33,0.00,,,0.00,0,Wunderground v.1.15,2013-04-05 01:24:00,
2013-04-04 21:29:00,48.5,19.9,29.98,SW,227,0.0,4.0,32,0.00,,,0.00,0,Wunderground v.1.15,2013-04-05 01:29:00,
2013-04-04 21:35:00,48.2,21.1,29.98,SW,227,0.0,4.0,34,0.00,,,0.00,0,Wunderground v.1.15,2013-04-05 01:35:00,
2013-04-04 21:40:00,47.8,24.0,29.98,SW,227,0.0,4.0,39,0.00,,,0.00,0,Wunderground v.1.15,2013-04-05 01:40:00,
2013-04-04 21:46:00,47.1,20.8,29.98,SW,227,0.0,4.0,35,0.00,,,0.00,0,Wunderground v.1.15,2013-04-05 01:46:00,
2013-04-04 21:51:00,47.0,20.7,29.98,SW,227,0.0,4.0,35,0.00,,,0.00,0,Wunderground v.1.15,2013-04-05 01:51:00,
2013-04-04 21:56:00,46.6,20.4,29.98,SW,226,0.0,4.0,35,0.00,,,0.00,0,Wunderground v.1.15,2013-04-05 01:56:00,
2013-04-04 22:02:00,46.5,20.9,29.98,SW,227,0.0,0.0,36,0.00,,,0.00,0,Wunderground v.1.15,2013-04-05 02:02:00,
2013-04-04 22:07:00,46.5,20.9,29.98,SW,227,0.0,0.0,36,0.00,,,0.00,0,Wunderground v.1.15,2013-04-05 02:07:00,
2013-04-04 22:13:00,46.7,21.1,29.98,SW,227,0.0,0.0,36,0.00,,,0.00,0,Wunderground v.1.15,2013-04-05 02:13:00,
2013-04-04 22:18:00,46.6,21.0,29.98,SW,227,0.0,0.0,36,0.00,,,0.00,0,Wunderground v.1.15,2013-04-05 02:18:00,
2013-04-04 22:27:00,46.2,21.3,29.97,SW,227,0.0,0.0,37,0.00,,,0.00,0,Wunderground v.1.15,2013-04-05 02:27:00,
2013-04-04 22:32:00,46.4,21.5,29.97,SW,227,0.0,0.0,37,0.00,,,0.00,0,Wunderground v.1.15,2013-04-05 02:32:00,
2013-04-04 22:38:00,46.5,21.0,29.97,SW,227,0.0,-999.0,37,-99.99,,,0.00,,weatherlink.com 1.10,2013-04-05 02:38:00,
2013-04-04 22:43:00,46.3,21.4,29.97,SW,227,0.0,0.0,37,0.00,,,0.00,0,Wunderground v.1.15,2013-04-05 02:43:00,
2013-04-04 22:49:00,45.7,21.5,29.97,SW,227,0.0,0.0,38,0.00,,,0.00,0,Wunderground v.1.15,2013-04-05 02:49:00,
2013-04-04 22:54:00,45.0,22.0,29.97,SW,227,0.0,-999.0,40,-99.99,,,0.00,,weatherlink.com 1.10,2013-04-05 02:54:00,
2013-04-04 22:59:00,44.3,23.2,29.97,SW,227,0.0,0.0,43,0.00,,,0.00,0,Wunderground v.1.15,2013-04-05 02:59:00,
2013-04-04 23:05:00,44.1,21.9,29.97,SW,227,0.0,2.0,41,0.00,,,0.00,0,Wunderground v.1.15,2013-04-05 03:05:00,
2013-04-04 23:11:00,44.7,22.4,29.97,SW,227,0.0,2.0,41,0.00,,,0.00,0,Wunderground v.1.15,2013-04-05 03:11:00,
2013-04-04 23:17:00,44.9,22.0,29.97,SW,226,0.0,2.0,40,0.00,,,0.00,0,Wunderground v.1.15,2013-04-05 03:17:00,
2013-04-04 23:23:00,44.7,21.8,29.96,SW,227,0.0,2.0,40,0.00,,,0.00,0,Wunderground v.1.15,2013-04-05 03:23:00,
2013-04-04 23:28:00,44.7,21.8,29.97,SW,226,0.0,2.0,40,0.00,,,0.00,0,Wunderground v.1.15,2013-04-05 03:28:00,
2013-04-04 23:34:00,44.7,22.4,29.96,SW,227,0.0,2.0,41,0.00,,,0.00,0,Wunderground v.1.15,2013-04-05 03:34:00,
2013-04-04 23:40:00,44.7,21.8,29.96,SW,226,0.0,2.0,40,0.00,,,0.00,0,Wunderground v.1.15,2013-04-05 03:40:00,
2013-04-04 23:46:00,44.8,21.9,29.96,SW,227,0.0,2.0,40,0.00,,,0.00,0,Wunderground v.1.15,2013-04-05 03:46:00,
2013-04-04 23:52:00,44.7,22.4,29.96,SW,227,0.0,2.0,41,0.00,,,0.00,0,Wunderground v.1.15,2013-04-05 03:52:00,
2013-04-04 23:57:00,44.4,22.1,29.96,SW,227,0.0,2.0,41,0.00,,,0.00,0,Wunderground v.1.15,2013-04-05 03:57:00,